Terminal Aerodrome Forecast
Issued by NWS Wakefield, VA

Home | Current Version | Previous Version | Text Only | Print | Product List | Glossary On
Versions: 1 2 3 4 5 6 7 8 9 10 11 12 13 14
549
FTUS41 KAKQ 140533
TAFSBY
TAF
KSBY 140533Z 1406/1506 18011KT P6SM BKN080
     FM141100 24012G19KT P6SM SCT200
     FM141400 28014G21KT P6SM SCT200
     FM141900 31014G21KT P6SM SKC
     FM142200 32005KT P6SM SKC
     FM150000 35003KT P6SM SKC=

USA.gov is the U.S. government's official web portal to all federal, state and local government web resources and services.